sensor_id;sensor_type;location;lat;lon;timestamp;P1;durP1;ratioP1;P2;durP2;ratioP2
1693;SDS011;844;47.058;15.472;2022-09-16T00:02:13;4.47;;;2.67;;
1693;SDS011;844;47.058;15.472;2022-09-16T00:04:42;4.03;;;2.50;;
1693;SDS011;844;47.058;15.472;2022-09-16T00:07:12;7.90;;;3.43;;
1693;SDS011;844;47.058;15.472;2022-09-16T00:09:42;2.83;;;2.63;;
1693;SDS011;844;47.058;15.472;2022-09-16T00:12:12;6.10;;;2.70;;
1693;SDS011;844;47.058;15.472;2022-09-16T00:14:41;3.20;;;2.90;;
1693;SDS011;844;47.058;15.472;2022-09-16T00:17:10;3.80;;;2.67;;
1693;SDS011;844;47.058;15.472;2022-09-16T00:19:39;5.73;;;2.70;;
1693;SDS011;844;47.058;15.472;2022-09-16T00:22:09;5.90;;;2.80;;
1693;SDS011;844;47.058;15.472;2022-09-16T00:24:38;3.63;;;2.70;;
1693;SDS011;844;47.058;15.472;2022-09-16T00:27:08;3.43;;;2.97;;
1693;SDS011;844;47.058;15.472;2022-09-16T00:29:38;3.77;;;2.80;;
1693;SDS011;844;47.058;15.472;2022-09-16T00:32:07;4.90;;;2.60;;
1693;SDS011;844;47.058;15.472;2022-09-16T00:34:36;2.33;;;2.13;;
1693;SDS011;844;47.058;15.472;2022-09-16T00:37:05;3.30;;;2.60;;
1693;SDS011;844;47.058;15.472;2022-09-16T00:39:35;3.37;;;2.57;;
1693;SDS011;844;47.058;15.472;2022-09-16T00:42:05;4.20;;;2.60;;
1693;SDS011;844;47.058;15.472;2022-09-16T00:44:53;2.63;;;2.43;;
1693;SDS011;844;47.058;15.472;2022-09-16T00:47:28;3.33;;;2.73;;
1693;SDS011;844;47.058;15.472;2022-09-16T00:50:01;3.20;;;2.90;;
1693;SDS011;844;47.058;15.472;2022-09-16T00:52:35;4.67;;;2.80;;
1693;SDS011;844;47.058;15.472;2022-09-16T00:55:06;5.63;;;2.40;;
1693;SDS011;844;47.058;15.472;2022-09-16T00:57:39;3.40;;;2.80;;
1693;SDS011;844;47.058;15.472;2022-09-16T01:00:12;3.70;;;2.03;;
1693;SDS011;844;47.058;15.472;2022-09-16T01:02:42;3.77;;;2.93;;
1693;SDS011;844;47.058;15.472;2022-09-16T01:05:14;7.03;;;3.03;;
1693;SDS011;844;47.058;15.472;2022-09-16T01:07:46;3.70;;;2.30;;
1693;SDS011;844;47.058;15.472;2022-09-16T01:10:18;4.93;;;2.80;;
1693;SDS011;844;47.058;15.472;2022-09-16T01:12:50;4.30;;;2.87;;
1693;SDS011;844;47.058;15.472;2022-09-16T01:15:28;3.60;;;2.80;;
1693;SDS011;844;47.058;15.472;2022-09-16T01:18:07;5.50;;;2.83;;
1693;SDS011;844;47.058;15.472;2022-09-16T01:20:51;2.80;;;2.30;;
1693;SDS011;844;47.058;15.472;2022-09-16T01:27:20;3.63;;;2.53;;
1693;SDS011;844;47.058;15.472;2022-09-16T01:30:33;2.70;;;2.50;;
1693;SDS011;844;47.058;15.472;2022-09-16T01:33:12;2.97;;;2.67;;
1693;SDS011;844;47.058;15.472;2022-09-16T01:36:02;3.13;;;2.43;;
1693;SDS011;844;47.058;15.472;2022-09-16T01:41:57;2.90;;;2.70;;
1693;SDS011;844;47.058;15.472;2022-09-16T01:44:36;4.03;;;2.90;;
1693;SDS011;844;47.058;15.472;2022-09-16T01:47:16;5.50;;;2.60;;
1693;SDS011;844;47.058;15.472;2022-09-16T01:49:53;4.93;;;2.80;;
1693;SDS011;844;47.058;15.472;2022-09-16T01:52:34;5.83;;;2.87;;
1693;SDS011;844;47.058;15.472;2022-09-16T01:55:13;3.70;;;2.63;;
1693;SDS011;844;47.058;15.472;2022-09-16T01:57:49;2.17;;;1.60;;
1693;SDS011;844;47.058;15.472;2022-09-16T02:00:22;4.80;;;2.97;;
1693;SDS011;844;47.058;15.472;2022-09-16T02:02:54;2.30;;;2.10;;
1693;SDS011;844;47.058;15.472;2022-09-16T02:05:27;4.47;;;2.70;;
1693;SDS011;844;47.058;15.472;2022-09-16T02:08:02;4.27;;;2.50;;
1693;SDS011;844;47.058;15.472;2022-09-16T02:10:37;4.23;;;2.47;;
1693;SDS011;844;47.058;15.472;2022-09-16T02:13:11;2.40;;;2.20;;
1693;SDS011;844;47.058;15.472;2022-09-16T02:15:45;2.77;;;2.00;;
1693;SDS011;844;47.058;15.472;2022-09-16T02:18:21;2.53;;;2.33;;
1693;SDS011;844;47.058;15.472;2022-09-16T02:20:54;2.13;;;1.93;;
1693;SDS011;844;47.058;15.472;2022-09-16T02:23:28;4.00;;;2.23;;
1693;SDS011;844;47.058;15.472;2022-09-16T02:26:02;5.13;;;2.50;;
1693;SDS011;844;47.058;15.472;2022-09-16T02:28:37;4.50;;;2.50;;
1693;SDS011;844;47.058;15.472;2022-09-16T02:31:10;2.10;;;2.00;;
1693;SDS011;844;47.058;15.472;2022-09-16T02:33:43;2.70;;;2.50;;
1693;SDS011;844;47.058;15.472;2022-09-16T02:36:18;2.10;;;1.90;;
1693;SDS011;844;47.058;15.472;2022-09-16T02:38:50;4.90;;;2.07;;
1693;SDS011;844;47.058;15.472;2022-09-16T02:41:25;2.30;;;2.00;;
1693;SDS011;844;47.058;15.472;2022-09-16T02:43:55;3.60;;;2.10;;
1693;SDS011;844;47.058;15.472;2022-09-16T02:46:25;2.63;;;2.13;;
1693;SDS011;844;47.058;15.472;2022-09-16T02:49:06;2.60;;;2.03;;
1693;SDS011;844;47.058;15.472;2022-09-16T02:51:43;4.30;;;2.60;;
1693;SDS011;844;47.058;15.472;2022-09-16T02:54:22;2.90;;;2.50;;
1693;SDS011;844;47.058;15.472;2022-09-16T02:56:59;1.60;;;1.50;;
1693;SDS011;844;47.058;15.472;2022-09-16T02:59:28;5.50;;;2.10;;
1693;SDS011;844;47.058;15.472;2022-09-16T03:01:58;5.67;;;3.10;;
1693;SDS011;844;47.058;15.472;2022-09-16T03:04:29;2.00;;;1.80;;
1693;SDS011;844;47.058;15.472;2022-09-16T03:06:58;2.90;;;2.60;;
1693;SDS011;844;47.058;15.472;2022-09-16T03:09:30;2.50;;;2.00;;
1693;SDS011;844;47.058;15.472;2022-09-16T03:18:21;2.63;;;2.43;;
1693;SDS011;844;47.058;15.472;2022-09-16T03:21:05;7.67;;;2.70;;
1693;SDS011;844;47.058;15.472;2022-09-16T03:23:47;4.07;;;2.40;;
1693;SDS011;844;47.058;15.472;2022-09-16T03:26:25;2.80;;;2.00;;
1693;SDS011;844;47.058;15.472;2022-09-16T03:29:06;3.67;;;2.20;;
1693;SDS011;844;47.058;15.472;2022-09-16T03:31:45;2.27;;;1.80;;
1693;SDS011;844;47.058;15.472;2022-09-16T03:34:21;4.50;;;2.00;;
1693;SDS011;844;47.058;15.472;2022-09-16T03:37:00;2.23;;;2.00;;
1693;SDS011;844;47.058;15.472;2022-09-16T03:39:34;2.97;;;2.23;;
1693;SDS011;844;47.058;15.472;2022-09-16T03:42:04;2.97;;;1.60;;
1693;SDS011;844;47.058;15.472;2022-09-16T03:44:38;2.20;;;1.63;;
1693;SDS011;844;47.058;15.472;2022-09-16T03:47:08;4.10;;;2.00;;
1693;SDS011;844;47.058;15.472;2022-09-16T03:49:37;2.60;;;1.90;;
1693;SDS011;844;47.058;15.472;2022-09-16T03:52:08;3.90;;;2.07;;
1693;SDS011;844;47.058;15.472;2022-09-16T03:54:38;1.83;;;1.73;;
1693;SDS011;844;47.058;15.472;2022-09-16T03:57:08;2.63;;;2.30;;
1693;SDS011;844;47.058;15.472;2022-09-16T03:59:37;3.63;;;2.00;;
1693;SDS011;844;47.058;15.472;2022-09-16T04:02:07;2.70;;;2.43;;
1693;SDS011;844;47.058;15.472;2022-09-16T04:04:36;2.20;;;1.90;;
1693;SDS011;844;47.058;15.472;2022-09-16T04:07:05;2.83;;;2.63;;
1693;SDS011;844;47.058;15.472;2022-09-16T04:09:36;3.93;;;3.03;;
1693;SDS011;844;47.058;15.472;2022-09-16T04:21:30;3.00;;;2.07;;
1693;SDS011;844;47.058;15.472;2022-09-16T04:57:17;2.33;;;2.00;;
1693;SDS011;844;47.058;15.472;2022-09-16T05:13:39;6.10;;;3.30;;
1693;SDS011;844;47.058;15.472;2022-09-16T05:16:09;3.27;;;2.60;;
1693;SDS011;844;47.058;15.472;2022-09-16T05:18:40;2.70;;;2.00;;
1693;SDS011;844;47.058;15.472;2022-09-16T05:21:13;3.47;;;2.13;;
1693;SDS011;844;47.058;15.472;2022-09-16T05:23:45;5.40;;;2.80;;
1693;SDS011;844;47.058;15.472;2022-09-16T05:26:15;3.90;;;2.17;;
1693;SDS011;844;47.058;15.472;2022-09-16T05:28:50;3.80;;;2.63;;
1693;SDS011;844;47.058;15.472;2022-09-16T05:31:20;3.67;;;2.50;;
1693;SDS011;844;47.058;15.472;2022-09-16T05:33:52;2.60;;;2.33;;
1693;SDS011;844;47.058;15.472;2022-09-16T05:36:24;2.23;;;1.93;;
1693;SDS011;844;47.058;15.472;2022-09-16T05:38:54;3.17;;;2.10;;
1693;SDS011;844;47.058;15.472;2022-09-16T05:41:43;3.20;;;2.47;;
1693;SDS011;844;47.058;15.472;2022-09-16T05:44:14;3.97;;;1.93;;
1693;SDS011;844;47.058;15.472;2022-09-16T05:46:43;1.53;;;1.43;;
1693;SDS011;844;47.058;15.472;2022-09-16T05:49:12;2.77;;;2.27;;
1693;SDS011;844;47.058;15.472;2022-09-16T05:51:46;2.10;;;1.60;;
1693;SDS011;844;47.058;15.472;2022-09-16T05:54:16;3.17;;;2.40;;
1693;SDS011;844;47.058;15.472;2022-09-16T05:56:46;2.97;;;1.83;;
1693;SDS011;844;47.058;15.472;2022-09-16T05:59:16;3.93;;;2.10;;
1693;SDS011;844;47.058;15.472;2022-09-16T06:01:46;2.30;;;2.10;;
1693;SDS011;844;47.058;15.472;2022-09-16T06:04:15;3.50;;;2.40;;
1693;SDS011;844;47.058;15.472;2022-09-16T06:06:44;2.63;;;2.43;;
1693;SDS011;844;47.058;15.472;2022-09-16T06:09:15;3.10;;;2.90;;
1693;SDS011;844;47.058;15.472;2022-09-16T06:11:46;6.07;;;3.27;;
1693;SDS011;844;47.058;15.472;2022-09-16T06:14:20;4.20;;;2.97;;
1693;SDS011;844;47.058;15.472;2022-09-16T06:16:49;4.43;;;2.77;;
1693;SDS011;844;47.058;15.472;2022-09-16T06:19:18;3.50;;;3.20;;
1693;SDS011;844;47.058;15.472;2022-09-16T06:21:47;3.77;;;2.97;;
1693;SDS011;844;47.058;15.472;2022-09-16T06:24:16;2.97;;;2.70;;
1693;SDS011;844;47.058;15.472;2022-09-16T06:26:47;4.77;;;3.50;;
1693;SDS011;844;47.058;15.472;2022-09-16T06:29:16;3.50;;;3.20;;
1693;SDS011;844;47.058;15.472;2022-09-16T06:31:47;3.60;;;3.30;;
1693;SDS011;844;47.058;15.472;2022-09-16T06:34:16;3.53;;;3.23;;
1693;SDS011;844;47.058;15.472;2022-09-16T06:36:45;5.73;;;3.77;;
1693;SDS011;844;47.058;15.472;2022-09-16T06:39:14;5.00;;;3.60;;
1693;SDS011;844;47.058;15.472;2022-09-16T06:41:44;2.70;;;2.23;;
1693;SDS011;844;47.058;15.472;2022-09-16T06:44:13;3.00;;;2.80;;
1693;SDS011;844;47.058;15.472;2022-09-16T06:46:42;3.90;;;3.50;;
1693;SDS011;844;47.058;15.472;2022-09-16T06:49:12;4.43;;;3.80;;
1693;SDS011;844;47.058;15.472;2022-09-16T06:51:41;4.00;;;3.70;;
1693;SDS011;844;47.058;15.472;2022-09-16T06:54:10;3.63;;;3.33;;
1693;SDS011;844;47.058;15.472;2022-09-16T06:56:40;3.13;;;2.93;;
1693;SDS011;844;47.058;15.472;2022-09-16T06:59:09;3.00;;;2.80;;
1693;SDS011;844;47.058;15.472;2022-09-16T07:01:40;4.37;;;3.20;;
1693;SDS011;844;47.058;15.472;2022-09-16T07:04:09;4.53;;;4.13;;
1693;SDS011;844;47.058;15.472;2022-09-16T07:06:40;3.40;;;3.10;;
1693;SDS011;844;47.058;15.472;2022-09-16T07:09:29;4.10;;;3.47;;
1693;SDS011;844;47.058;15.472;2022-09-16T07:11:58;4.17;;;3.87;;
1693;SDS011;844;47.058;15.472;2022-09-16T07:14:27;6.30;;;4.03;;
1693;SDS011;844;47.058;15.472;2022-09-16T07:16:58;3.57;;;3.27;;
1693;SDS011;844;47.058;15.472;2022-09-16T07:19:29;4.27;;;3.80;;
1693;SDS011;844;47.058;15.472;2022-09-16T07:21:58;3.97;;;3.67;;
1693;SDS011;844;47.058;15.472;2022-09-16T07:24:27;4.30;;;3.90;;
1693;SDS011;844;47.058;15.472;2022-09-16T07:26:56;4.40;;;4.00;;
1693;SDS011;844;47.058;15.472;2022-09-16T07:29:25;3.57;;;3.27;;
1693;SDS011;844;47.058;15.472;2022-09-16T07:31:54;3.57;;;2.83;;
1693;SDS011;844;47.058;15.472;2022-09-16T07:34:23;4.30;;;3.60;;
1693;SDS011;844;47.058;15.472;2022-09-16T07:36:54;3.40;;;3.10;;
1693;SDS011;844;47.058;15.472;2022-09-16T07:39:24;2.47;;;2.27;;
1693;SDS011;844;47.058;15.472;2022-09-16T07:41:56;3.30;;;3.10;;
1693;SDS011;844;47.058;15.472;2022-09-16T07:44:31;3.73;;;3.43;;
1693;SDS011;844;47.058;15.472;2022-09-16T07:47:00;4.03;;;3.73;;
1693;SDS011;844;47.058;15.472;2022-09-16T07:49:29;6.27;;;4.67;;
1693;SDS011;844;47.058;15.472;2022-09-16T07:52:00;4.63;;;4.20;;
1693;SDS011;844;47.058;15.472;2022-09-16T07:54:29;4.43;;;4.03;;
1693;SDS011;844;47.058;15.472;2022-09-16T07:56:58;4.17;;;3.77;;
1693;SDS011;844;47.058;15.472;2022-09-16T07:59:27;3.00;;;2.80;;
1693;SDS011;844;47.058;15.472;2022-09-16T08:01:56;4.87;;;4.47;;
1693;SDS011;844;47.058;15.472;2022-09-16T08:04:25;3.97;;;3.60;;
1693;SDS011;844;47.058;15.472;2022-09-16T08:06:54;4.50;;;4.10;;
1693;SDS011;844;47.058;15.472;2022-09-16T08:09:24;4.50;;;3.73;;
1693;SDS011;844;47.058;15.472;2022-09-16T08:12:05;4.13;;;3.83;;
1693;SDS011;844;47.058;15.472;2022-09-16T08:14:37;3.70;;;3.40;;
1693;SDS011;844;47.058;15.472;2022-09-16T08:17:05;5.70;;;4.90;;
1693;SDS011;844;47.058;15.472;2022-09-16T08:19:34;3.80;;;3.50;;
1693;SDS011;844;47.058;15.472;2022-09-16T08:22:05;4.83;;;4.43;;
1693;SDS011;844;47.058;15.472;2022-09-16T08:24:35;3.87;;;3.57;;
1693;SDS011;844;47.058;15.472;2022-09-16T08:27:04;4.40;;;4.10;;
1693;SDS011;844;47.058;15.472;2022-09-16T08:29:32;4.70;;;4.40;;
1693;SDS011;844;47.058;15.472;2022-09-16T08:32:01;4.30;;;3.90;;
1693;SDS011;844;47.058;15.472;2022-09-16T08:34:30;4.57;;;4.23;;
1693;SDS011;844;47.058;15.472;2022-09-16T08:36:59;4.97;;;4.40;;
1693;SDS011;844;47.058;15.472;2022-09-16T08:39:28;5.13;;;4.70;;
1693;SDS011;844;47.058;15.472;2022-09-16T08:45:01;4.00;;;3.60;;
1693;SDS011;844;47.058;15.472;2022-09-16T08:47:48;4.13;;;3.80;;
1693;SDS011;844;47.058;15.472;2022-09-16T08:50:35;5.07;;;4.67;;
1693;SDS011;844;47.058;15.472;2022-09-16T08:53:09;4.37;;;3.97;;
1693;SDS011;844;47.058;15.472;2022-09-16T08:55:54;4.03;;;3.73;;
1693;SDS011;844;47.058;15.472;2022-09-16T08:58:25;6.33;;;5.73;;
1693;SDS011;844;47.058;15.472;2022-09-16T09:01:04;4.50;;;4.10;;
1693;SDS011;844;47.058;15.472;2022-09-16T09:03:44;3.73;;;3.43;;
1693;SDS011;844;47.058;15.472;2022-09-16T09:06:19;4.57;;;3.93;;
1693;SDS011;844;47.058;15.472;2022-09-16T09:09:10;4.77;;;4.37;;
1693;SDS011;844;47.058;15.472;2022-09-16T09:12:01;4.53;;;4.23;;
1693;SDS011;844;47.058;15.472;2022-09-16T09:14:42;4.30;;;4.00;;
1693;SDS011;844;47.058;15.472;2022-09-16T09:17:38;5.03;;;4.63;;
1693;SDS011;844;47.058;15.472;2022-09-16T09:20:24;4.57;;;4.27;;
1693;SDS011;844;47.058;15.472;2022-09-16T09:25:57;4.67;;;4.27;;
1693;SDS011;844;47.058;15.472;2022-09-16T09:31:33;4.70;;;4.03;;
1693;SDS011;844;47.058;15.472;2022-09-16T09:34:15;3.97;;;3.67;;
1693;SDS011;844;47.058;15.472;2022-09-16T09:36:58;4.20;;;3.90;;
1693;SDS011;844;47.058;15.472;2022-09-16T09:39:47;5.57;;;5.07;;
1693;SDS011;844;47.058;15.472;2022-09-16T09:42:27;4.57;;;4.23;;
1693;SDS011;844;47.058;15.472;2022-09-16T09:45:00;4.03;;;3.73;;
1693;SDS011;844;47.058;15.472;2022-09-16T09:47:38;2.63;;;2.43;;
1693;SDS011;844;47.058;15.472;2022-09-16T09:50:14;3.30;;;3.00;;
1693;SDS011;844;47.058;15.472;2022-09-16T09:52:51;2.80;;;2.60;;
1693;SDS011;844;47.058;15.472;2022-09-16T09:55:31;5.17;;;2.90;;
1693;SDS011;844;47.058;15.472;2022-09-16T09:58:09;4.43;;;3.30;;
1693;SDS011;844;47.058;15.472;2022-09-16T10:00:51;3.30;;;3.00;;
1693;SDS011;844;47.058;15.472;2022-09-16T10:03:25;3.17;;;2.97;;
1693;SDS011;844;47.058;15.472;2022-09-16T10:05:57;3.67;;;3.40;;
1693;SDS011;844;47.058;15.472;2022-09-16T10:08:27;4.30;;;3.90;;
1693;SDS011;844;47.058;15.472;2022-09-16T10:11:02;4.60;;;4.20;;
1693;SDS011;844;47.058;15.472;2022-09-16T10:13:47;7.90;;;4.00;;
1693;SDS011;844;47.058;15.472;2022-09-16T10:16:19;4.30;;;3.90;;
1693;SDS011;844;47.058;15.472;2022-09-16T10:18:55;4.20;;;3.80;;
1693;SDS011;844;47.058;15.472;2022-09-16T10:21:39;4.20;;;3.87;;
1693;SDS011;844;47.058;15.472;2022-09-16T10:24:28;3.60;;;3.33;;
1693;SDS011;844;47.058;15.472;2022-09-16T10:27:17;3.30;;;3.00;;
1693;SDS011;844;47.058;15.472;2022-09-16T10:30:01;3.40;;;3.10;;
1693;SDS011;844;47.058;15.472;2022-09-16T10:32:34;3.40;;;3.20;;
1693;SDS011;844;47.058;15.472;2022-09-16T10:35:20;3.43;;;3.13;;
1693;SDS011;844;47.058;15.472;2022-09-16T10:37:53;3.33;;;3.03;;
1693;SDS011;844;47.058;15.472;2022-09-16T10:40:24;3.97;;;3.60;;
1693;SDS011;844;47.058;15.472;2022-09-16T10:42:55;3.93;;;3.47;;
1693;SDS011;844;47.058;15.472;2022-09-16T10:45:32;3.33;;;3.03;;
1693;SDS011;844;47.058;15.472;2022-09-16T10:48:04;5.43;;;3.83;;
1693;SDS011;844;47.058;15.472;2022-09-16T10:50:51;4.77;;;4.37;;
1693;SDS011;844;47.058;15.472;2022-09-16T10:53:26;4.20;;;3.80;;
1693;SDS011;844;47.058;15.472;2022-09-16T10:56:04;4.47;;;4.07;;
1693;SDS011;844;47.058;15.472;2022-09-16T10:58:44;5.40;;;3.70;;
1693;SDS011;844;47.058;15.472;2022-09-16T11:01:19;5.13;;;4.73;;
1693;SDS011;844;47.058;15.472;2022-09-16T11:04:10;4.47;;;4.10;;
1693;SDS011;844;47.058;15.472;2022-09-16T11:07:14;4.70;;;4.40;;
1693;SDS011;844;47.058;15.472;2022-09-16T11:09:56;4.63;;;4.23;;
1693;SDS011;844;47.058;15.472;2022-09-16T11:12:42;5.13;;;4.63;;
1693;SDS011;844;47.058;15.472;2022-09-16T11:16:01;4.83;;;4.30;;
1693;SDS011;844;47.058;15.472;2022-09-16T11:18:51;6.50;;;4.73;;
1693;SDS011;844;47.058;15.472;2022-09-16T11:21:33;4.60;;;4.20;;
1693;SDS011;844;47.058;15.472;2022-09-16T11:27:38;5.03;;;4.63;;
1693;SDS011;844;47.058;15.472;2022-09-16T11:30:16;5.50;;;5.00;;
1693;SDS011;844;47.058;15.472;2022-09-16T11:32:59;5.00;;;4.60;;
1693;SDS011;844;47.058;15.472;2022-09-16T11:35:44;5.43;;;4.93;;
1693;SDS011;844;47.058;15.472;2022-09-16T11:38:39;5.20;;;4.80;;
1693;SDS011;844;47.058;15.472;2022-09-16T11:41:23;5.13;;;4.27;;
1693;SDS011;844;47.058;15.472;2022-09-16T11:44:06;5.80;;;5.30;;
1693;SDS011;844;47.058;15.472;2022-09-16T11:46:51;4.80;;;4.40;;
1693;SDS011;844;47.058;15.472;2022-09-16T11:49:41;5.00;;;4.60;;
1693;SDS011;844;47.058;15.472;2022-09-16T11:52:31;4.63;;;4.23;;
1693;SDS011;844;47.058;15.472;2022-09-16T11:55:29;4.70;;;4.30;;
1693;SDS011;844;47.058;15.472;2022-09-16T11:58:13;4.40;;;4.00;;
1693;SDS011;844;47.058;15.472;2022-09-16T12:01:02;5.10;;;4.70;;
1693;SDS011;844;47.058;15.472;2022-09-16T12:03:48;5.30;;;4.90;;
1693;SDS011;844;47.058;15.472;2022-09-16T12:06:28;4.67;;;4.27;;
1693;SDS011;844;47.058;15.472;2022-09-16T12:09:08;6.10;;;4.43;;
1693;SDS011;844;47.058;15.472;2022-09-16T12:11:43;5.20;;;4.80;;
1693;SDS011;844;47.058;15.472;2022-09-16T12:14:21;5.47;;;4.97;;
1693;SDS011;844;47.058;15.472;2022-09-16T12:16:54;4.40;;;4.00;;
1693;SDS011;844;47.058;15.472;2022-09-16T12:19:31;5.47;;;5.07;;
1693;SDS011;844;47.058;15.472;2022-09-16T12:22:04;5.37;;;4.97;;
1693;SDS011;844;47.058;15.472;2022-09-16T12:24:38;4.27;;;3.87;;
1693;SDS011;844;47.058;15.472;2022-09-16T12:27:12;5.30;;;4.83;;
1693;SDS011;844;47.058;15.472;2022-09-16T12:29:56;4.23;;;3.90;;
1693;SDS011;844;47.058;15.472;2022-09-16T12:32:36;4.13;;;3.83;;
1693;SDS011;844;47.058;15.472;2022-09-16T12:35:13;5.00;;;4.60;;
1693;SDS011;844;47.058;15.472;2022-09-16T12:37:50;5.00;;;4.60;;
1693;SDS011;844;47.058;15.472;2022-09-16T12:40:23;5.57;;;4.93;;
1693;SDS011;844;47.058;15.472;2022-09-16T12:46:20;4.73;;;4.33;;
1693;SDS011;844;47.058;15.472;2022-09-16T12:49:32;4.77;;;4.47;;
1693;SDS011;844;47.058;15.472;2022-09-16T12:56:24;4.93;;;4.53;;
1693;SDS011;844;47.058;15.472;2022-09-16T12:59:27;4.23;;;3.83;;
1693;SDS011;844;47.058;15.472;2022-09-16T13:02:34;5.00;;;4.60;;
1693;SDS011;844;47.058;15.472;2022-09-16T13:05:10;4.80;;;4.40;;
1693;SDS011;844;47.058;15.472;2022-09-16T13:07:49;4.50;;;4.10;;
1693;SDS011;844;47.058;15.472;2022-09-16T13:10:23;3.80;;;3.47;;
1693;SDS011;844;47.058;15.472;2022-09-16T13:13:21;3.90;;;3.60;;
1693;SDS011;844;47.058;15.472;2022-09-16T13:16:06;4.23;;;3.93;;
1693;SDS011;844;47.058;15.472;2022-09-16T13:18:39;4.87;;;4.50;;
1693;SDS011;844;47.058;15.472;2022-09-16T13:21:20;5.13;;;4.00;;
1693;SDS011;844;47.058;15.472;2022-09-16T13:23:57;4.43;;;4.13;;
1693;SDS011;844;47.058;15.472;2022-09-16T13:26:38;3.87;;;3.60;;
1693;SDS011;844;47.058;15.472;2022-09-16T13:29:22;4.40;;;4.00;;
1693;SDS011;844;47.058;15.472;2022-09-16T13:32:25;5.17;;;4.70;;
1693;SDS011;844;47.058;15.472;2022-09-16T13:35:22;4.00;;;3.63;;
1693;SDS011;844;47.058;15.472;2022-09-16T13:38:11;4.47;;;4.07;;
1693;SDS011;844;47.058;15.472;2022-09-16T13:40:52;4.67;;;4.17;;
1693;SDS011;844;47.058;15.472;2022-09-16T13:43:30;4.03;;;3.67;;
1693;SDS011;844;47.058;15.472;2022-09-16T13:46:04;4.33;;;3.73;;
1693;SDS011;844;47.058;15.472;2022-09-16T13:48:44;4.00;;;3.70;;
1693;SDS011;844;47.058;15.472;2022-09-16T13:51:27;5.43;;;3.50;;
1693;SDS011;844;47.058;15.472;2022-09-16T13:54:02;3.60;;;3.27;;
1693;SDS011;844;47.058;15.472;2022-09-16T13:56:39;4.23;;;3.47;;
1693;SDS011;844;47.058;15.472;2022-09-16T13:59:42;4.13;;;3.83;;
1693;SDS011;844;47.058;15.472;2022-09-16T14:02:40;4.00;;;3.70;;
1693;SDS011;844;47.058;15.472;2022-09-16T14:09:05;4.40;;;4.00;;
1693;SDS011;844;47.058;15.472;2022-09-16T14:11:54;3.63;;;3.33;;
1693;SDS011;844;47.058;15.472;2022-09-16T14:14:36;3.60;;;3.30;;
1693;SDS011;844;47.058;15.472;2022-09-16T14:17:14;4.57;;;3.17;;
1693;SDS011;844;47.058;15.472;2022-09-16T14:19:51;4.13;;;3.73;;
1693;SDS011;844;47.058;15.472;2022-09-16T14:22:26;4.90;;;4.10;;
1693;SDS011;844;47.058;15.472;2022-09-16T14:25:03;5.03;;;4.13;;
1693;SDS011;844;47.058;15.472;2022-09-16T14:28:14;3.10;;;2.80;;
1693;SDS011;844;47.058;15.472;2022-09-16T14:30:51;3.47;;;3.27;;
1693;SDS011;844;47.058;15.472;2022-09-16T14:33:26;3.97;;;3.67;;
1693;SDS011;844;47.058;15.472;2022-09-16T14:36:07;5.47;;;5.07;;
1693;SDS011;844;47.058;15.472;2022-09-16T14:38:39;4.77;;;4.27;;
1693;SDS011;844;47.058;15.472;2022-09-16T14:41:21;2.70;;;2.50;;
1693;SDS011;844;47.058;15.472;2022-09-16T14:44:01;3.73;;;3.43;;
1693;SDS011;844;47.058;15.472;2022-09-16T14:46:45;4.67;;;3.27;;
1693;SDS011;844;47.058;15.472;2022-09-16T14:49:34;3.80;;;3.50;;
1693;SDS011;844;47.058;15.472;2022-09-16T14:52:15;3.87;;;3.57;;
1693;SDS011;844;47.058;15.472;2022-09-16T14:54:50;3.80;;;3.50;;
1693;SDS011;844;47.058;15.472;2022-09-16T14:57:24;4.03;;;3.63;;
1693;SDS011;844;47.058;15.472;2022-09-16T15:00:11;4.13;;;3.60;;
1693;SDS011;844;47.058;15.472;2022-09-16T15:02:45;3.50;;;3.20;;
1693;SDS011;844;47.058;15.472;2022-09-16T15:05:20;3.00;;;2.80;;
1693;SDS011;844;47.058;15.472;2022-09-16T15:08:02;3.47;;;3.17;;
1693;SDS011;844;47.058;15.472;2022-09-16T15:10:54;3.53;;;3.23;;
1693;SDS011;844;47.058;15.472;2022-09-16T15:13:43;3.10;;;2.90;;
1693;SDS011;844;47.058;15.472;2022-09-16T15:16:13;3.13;;;2.90;;
1693;SDS011;844;47.058;15.472;2022-09-16T15:18:54;3.43;;;2.87;;
1693;SDS011;844;47.058;15.472;2022-09-16T15:21:31;3.70;;;3.40;;
1693;SDS011;844;47.058;15.472;2022-09-16T15:24:04;2.63;;;2.43;;
1693;SDS011;844;47.058;15.472;2022-09-16T15:26:44;2.97;;;2.77;;
1693;SDS011;844;47.058;15.472;2022-09-16T15:29:26;2.50;;;2.10;;
1693;SDS011;844;47.058;15.472;2022-09-16T15:32:05;2.20;;;2.00;;
1693;SDS011;844;47.058;15.472;2022-09-16T15:34:44;3.10;;;2.90;;
1693;SDS011;844;47.058;15.472;2022-09-16T15:37:27;2.60;;;2.40;;
1693;SDS011;844;47.058;15.472;2022-09-16T15:40:22;3.40;;;2.00;;
1693;SDS011;844;47.058;15.472;2022-09-16T15:43:11;2.83;;;2.60;;
1693;SDS011;844;47.058;15.472;2022-09-16T15:45:56;2.80;;;2.60;;
1693;SDS011;844;47.058;15.472;2022-09-16T15:48:28;2.70;;;2.50;;
1693;SDS011;844;47.058;15.472;2022-09-16T15:51:02;3.13;;;2.90;;
1693;SDS011;844;47.058;15.472;2022-09-16T15:53:44;3.07;;;2.83;;
1693;SDS011;844;47.058;15.472;2022-09-16T15:57:05;3.30;;;3.10;;
1693;SDS011;844;47.058;15.472;2022-09-16T15:59:42;2.93;;;2.73;;
1693;SDS011;844;47.058;15.472;2022-09-16T16:02:29;2.80;;;2.60;;
1693;SDS011;844;47.058;15.472;2022-09-16T16:05:06;3.53;;;3.23;;
1693;SDS011;844;47.058;15.472;2022-09-16T16:07:39;7.90;;;4.80;;
1693;SDS011;844;47.058;15.472;2022-09-16T16:10:13;10.20;;;9.23;;
1693;SDS011;844;47.058;15.472;2022-09-16T16:12:46;8.23;;;7.60;;
1693;SDS011;844;47.058;15.472;2022-09-16T16:15:20;4.53;;;4.23;;
1693;SDS011;844;47.058;15.472;2022-09-16T16:18:14;4.07;;;3.70;;
1693;SDS011;844;47.058;15.472;2022-09-16T16:20:58;5.37;;;4.87;;
1693;SDS011;844;47.058;15.472;2022-09-16T16:23:31;4.63;;;4.33;;
1693;SDS011;844;47.058;15.472;2022-09-16T16:26:03;4.60;;;4.30;;
1693;SDS011;844;47.058;15.472;2022-09-16T16:28:33;2.83;;;2.63;;
1693;SDS011;844;47.058;15.472;2022-09-16T16:31:12;5.73;;;5.33;;
1693;SDS011;844;47.058;15.472;2022-09-16T16:33:46;4.20;;;3.90;;
1693;SDS011;844;47.058;15.472;2022-09-16T16:36:16;4.70;;;4.40;;
1693;SDS011;844;47.058;15.472;2022-09-16T16:38:46;4.40;;;4.10;;
1693;SDS011;844;47.058;15.472;2022-09-16T16:41:18;5.60;;;5.10;;
1693;SDS011;844;47.058;15.472;2022-09-16T16:43:47;4.63;;;4.23;;
1693;SDS011;844;47.058;15.472;2022-09-16T16:46:17;3.90;;;3.63;;
1693;SDS011;844;47.058;15.472;2022-09-16T16:48:50;4.90;;;4.60;;
1693;SDS011;844;47.058;15.472;2022-09-16T16:51:19;3.30;;;3.00;;
1693;SDS011;844;47.058;15.472;2022-09-16T16:53:48;2.83;;;2.63;;
1693;SDS011;844;47.058;15.472;2022-09-16T16:56:19;2.80;;;2.60;;
1693;SDS011;844;47.058;15.472;2022-09-16T16:58:48;2.27;;;2.17;;
1693;SDS011;844;47.058;15.472;2022-09-16T17:01:18;2.67;;;2.47;;
1693;SDS011;844;47.058;15.472;2022-09-16T17:06:34;3.30;;;3.00;;
1693;SDS011;844;47.058;15.472;2022-09-16T17:09:04;5.40;;;4.90;;
1693;SDS011;844;47.058;15.472;2022-09-16T17:11:51;5.50;;;5.10;;
1693;SDS011;844;47.058;15.472;2022-09-16T17:14:23;10.30;;;8.77;;
1693;SDS011;844;47.058;15.472;2022-09-16T17:17:10;6.87;;;6.30;;
1693;SDS011;844;47.058;15.472;2022-09-16T17:19:43;6.20;;;5.70;;
1693;SDS011;844;47.058;15.472;2022-09-16T17:22:17;5.03;;;4.23;;
1693;SDS011;844;47.058;15.472;2022-09-16T17:24:46;4.17;;;3.87;;
1693;SDS011;844;47.058;15.472;2022-09-16T17:27:15;4.47;;;3.73;;
1693;SDS011;844;47.058;15.472;2022-09-16T17:29:46;4.10;;;3.70;;
1693;SDS011;844;47.058;15.472;2022-09-16T17:32:15;4.17;;;3.80;;
1693;SDS011;844;47.058;15.472;2022-09-16T17:34:45;2.87;;;2.67;;
1693;SDS011;844;47.058;15.472;2022-09-16T17:37:15;2.63;;;2.43;;
1693;SDS011;844;47.058;15.472;2022-09-16T17:39:45;3.30;;;3.10;;
1693;SDS011;844;47.058;15.472;2022-09-16T17:42:15;3.57;;;3.27;;
1693;SDS011;844;47.058;15.472;2022-09-16T17:44:44;3.93;;;2.70;;
1693;SDS011;844;47.058;15.472;2022-09-16T17:47:16;3.27;;;2.97;;
1693;SDS011;844;47.058;15.472;2022-09-16T17:50:00;3.20;;;3.00;;